Time;durP1;ratioP1;P1;durP2;ratioP2;P2;SDS_P1;SDS_P2;PMS_P1;PMS_P2;Temp;Humidity;BMP_temperature;BMP_pressure;BME280_temperature;BME280_humidity;BME280_pressure;Samples;Min_cycle;Max_cycle;Signal;HPM_P1;HPM_P2
2022/10/19 00:00:45;;;;;;;0.55;0.55;;;20.10;61.30;;;;;;6242143;28;20551;-73
2022/10/19 00:03:48;;;;;;;0.50;0.50;;;20.10;61.30;;;;;;6255301;28;20279;-73
2022/10/19 00:06:49;;;;;;;0.80;0.63;;;20.10;61.30;;;;;;6266581;28;20029;-73
2022/10/19 00:09:49;;;;;;;0.65;0.52;;;20.10;61.30;;;;;;6258220;28;20033;-74
2022/10/19 00:12:50;;;;;;;1.10;0.60;;;20.10;61.30;;;;;;6258117;28;20649;-73
2022/10/19 00:15:50;;;;;;;0.82;0.60;;;20.10;61.20;;;;;;6242634;28;20071;-73
2022/10/19 00:18:54;;;;;;;0.82;0.70;;;20.10;61.30;;;;;;6246210;28;20036;-73
2022/10/19 00:21:55;;;;;;;0.60;0.40;;;20.10;61.30;;;;;;6265952;28;20059;-74
2022/10/19 00:24:56;;;;;;;0.68;0.68;;;20.10;61.20;;;;;;6267190;28;20029;-73
2022/10/19 00:27:58;;;;;;;0.98;0.70;;;20.10;61.30;;;;;;6266029;28;20028;-73
2022/10/19 00:31:07;;;;;;;0.57;0.57;;;20.10;61.30;;;;;;6265556;28;20017;-74
2022/10/19 00:34:07;;;;;;;0.70;0.50;;;20.10;61.30;;;;;;6257566;28;20028;-73
2022/10/19 00:37:08;;;;;;;0.60;0.50;;;20.10;61.20;;;;;;6242288;28;20029;-73
2022/10/19 00:40:09;;;;;;;1.05;0.70;;;20.10;61.20;;;;;;6242874;28;20482;-74
2022/10/19 00:43:30;;;;;;;0.80;0.77;;;20.10;61.30;;;;;;6241217;28;20021;-73
2022/10/19 00:46:34;;;;;;;1.10;0.80;;;20.10;61.30;;;;;;6241717;28;20122;-73
2022/10/19 00:49:40;;;;;;;0.70;0.57;;;20.10;61.30;;;;;;6240377;28;20041;-73
2022/10/19 00:52:41;;;;;;;0.95;0.57;;;20.10;61.30;;;;;;6241843;28;20037;-73
2022/10/19 00:55:42;;;;;;;0.63;0.45;;;20.10;61.30;;;;;;6240315;28;20029;-73
2022/10/19 00:58:43;;;;;;;1.05;0.70;;;20.10;61.30;;;;;;6242115;28;20022;-73
2022/10/19 01:01:46;;;;;;;0.82;0.70;;;20.10;61.30;;;;;;6240563;28;20065;-75
2022/10/19 01:04:50;;;;;;;0.88;0.68;;;20.10;61.20;;;;;;6240536;28;20024;-73
2022/10/19 01:07:51;;;;;;;0.82;0.68;;;20.10;61.30;;;;;;6245176;28;20259;-73
2022/10/19 01:11:23;;;;;;;1.20;0.70;;;20.10;61.30;;;;;;6247026;28;20048;-73
2022/10/19 01:14:36;;;;;;;1.17;0.57;;;20.10;61.30;;;;;;6241205;28;20096;-73
2022/10/19 01:17:56;;;;;;;0.90;0.50;;;20.10;61.30;;;;;;6245348;28;20029;-73
2022/10/19 01:21:08;;;;;;;0.50;0.50;;;20.10;61.30;;;;;;6267722;28;20021;-74
2022/10/19 01:24:21;;;;;;;0.40;0.40;;;20.10;61.30;;;;;;6269816;28;20024;-75
2022/10/19 01:28:01;;;;;;;0.90;0.60;;;20.10;61.30;;;;;;6271346;28;20100;-74
2022/10/19 01:31:39;;;;;;;0.80;0.60;;;20.10;61.30;;;;;;6249382;28;20604;-73
2022/10/19 01:34:51;;;;;;;0.55;0.50;;;20.10;61.30;;;;;;6268802;28;20045;-74
2022/10/19 01:37:52;;;;;;;1.05;0.77;;;20.10;61.30;;;;;;6269764;28;20533;-73
2022/10/19 01:41:22;;;;;;;0.60;0.50;;;20.10;61.30;;;;;;6269631;28;20025;-73
2022/10/19 01:44:44;;;;;;;1.75;0.50;;;20.10;61.30;;;;;;6269470;28;20517;-74
2022/10/19 01:48:12;;;;;;;1.60;0.85;;;20.10;61.30;;;;;;6246000;28;20052;-73
2022/10/19 01:51:25;;;;;;;0.90;0.60;;;20.10;61.30;;;;;;6244464;28;20041;-74
2022/10/19 01:54:33;;;;;;;0.77;0.60;;;20.10;61.30;;;;;;6248612;28;20021;-74
2022/10/19 01:57:39;;;;;;;3.00;0.40;;;20.10;61.30;;;;;;6270352;28;20052;-73
2022/10/19 02:00:42;;;;;;;0.40;0.40;;;20.10;61.30;;;;;;6269290;28;20056;-73
2022/10/19 02:03:43;;;;;;;1.13;0.73;;;20.10;61.30;;;;;;6270346;28;20017;-73
2022/10/19 02:06:45;;;;;;;0.60;0.50;;;20.10;61.30;;;;;;6269058;28;20036;-74
2022/10/19 02:09:46;;;;;;;0.60;0.40;;;20.10;61.30;;;;;;6270329;28;20033;-74
2022/10/19 02:12:47;;;;;;;0.95;0.75;;;20.10;61.30;;;;;;6270238;28;20028;-73
2022/10/19 02:15:52;;;;;;;0.63;0.60;;;20.10;61.30;;;;;;6270023;28;20075;-73
2022/10/19 02:18:54;;;;;;;0.88;0.70;;;20.10;61.20;;;;;;6269060;28;20028;-73
2022/10/19 02:21:56;;;;;;;0.40;0.40;;;20.10;61.30;;;;;;6268628;28;20033;-73
2022/10/19 02:24:58;;;;;;;2.20;0.70;;;20.10;61.30;;;;;;6264248;28;20650;-74
2022/10/19 02:28:01;;;;;;;0.85;0.52;;;20.10;61.30;;;;;;6270013;28;20056;-73
2022/10/19 02:31:02;;;;;;;0.90;0.60;;;20.10;61.30;;;;;;6260662;28;20036;-73
2022/10/19 02:34:03;;;;;;;0.32;0.32;;;20.10;61.30;;;;;;6244230;28;20022;-73
2022/10/19 02:37:04;;;;;;;1.70;0.55;;;20.10;61.30;;;;;;6245437;28;20026;-74
2022/10/19 02:40:06;;;;;;;1.05;0.52;;;20.10;61.30;;;;;;6243877;28;20082;-74
2022/10/19 02:43:13;;;;;;;0.85;0.60;;;20.10;61.20;;;;;;6245136;28;20013;-74
2022/10/19 02:46:24;;;;;;;0.93;0.50;;;20.10;61.30;;;;;;6260330;28;20033;-73
2022/10/19 02:49:26;;;;;;;0.57;0.50;;;20.10;61.30;;;;;;6244584;28;20048;-73
2022/10/19 02:52:27;;;;;;;0.43;0.40;;;20.10;61.30;;;;;;6264353;28;20032;-73
2022/10/19 02:55:29;;;;;;;0.57;0.50;;;20.10;61.30;;;;;;6267823;28;20110;-74
2022/10/19 02:58:30;;;;;;;0.50;0.47;;;20.10;61.30;;;;;;6269192;28;20049;-74
2022/10/19 03:01:31;;;;;;;0.50;0.50;;;20.10;61.30;;;;;;6269225;28;20040;-73
2022/10/19 03:04:31;;;;;;;0.70;0.45;;;20.10;61.30;;;;;;6268953;28;20028;-75
2022/10/19 03:07:32;;;;;;;0.70;0.55;;;20.10;61.30;;;;;;6270274;28;20389;-74
2022/10/19 03:10:33;;;;;;;1.23;0.43;;;20.10;61.30;;;;;;6268724;28;20052;-73
2022/10/19 03:13:33;;;;;;;1.10;0.60;;;20.10;61.20;;;;;;6270241;28;20024;-74
2022/10/19 03:16:34;;;;;;;0.55;0.43;;;20.10;61.30;;;;;;6269959;28;20029;-73
2022/10/19 03:19:36;;;;;;;0.85;0.57;;;20.10;61.30;;;;;;6267991;28;20460;-74
2022/10/19 03:22:36;;;;;;;0.40;0.40;;;20.10;61.30;;;;;;6269945;28;20028;-74
2022/10/19 03:25:37;;;;;;;1.35;0.68;;;20.10;61.20;;;;;;6268405;28;20028;-74
2022/10/19 03:28:38;;;;;;;0.60;0.50;;;20.10;61.30;;;;;;6267809;28;20549;-74
2022/10/19 03:31:39;;;;;;;1.00;0.40;;;20.10;61.30;;;;;;6269390;28;20021;-73
2022/10/19 03:34:40;;;;;;;0.60;0.60;;;20.10;61.30;;;;;;6268219;28;20558;-73
2022/10/19 03:37:40;;;;;;;1.20;0.50;;;20.10;61.30;;;;;;6269184;28;20021;-74
2022/10/19 03:40:41;;;;;;;0.73;0.50;;;20.10;61.30;;;;;;6269410;28;20127;-73
2022/10/19 03:43:42;;;;;;;0.50;0.45;;;20.20;61.40;;;;;;6269306;28;20028;-74
2022/10/19 03:46:43;;;;;;;0.60;0.60;;;20.10;61.20;;;;;;6267747;28;20082;-73
2022/10/19 03:49:44;;;;;;;0.40;0.38;;;20.10;61.30;;;;;;6269255;28;20437;-74
2022/10/19 03:52:44;;;;;;;0.80;0.50;;;20.10;61.30;;;;;;6267603;28;20025;-74
2022/10/19 03:55:45;;;;;;;0.55;0.50;;;20.10;61.30;;;;;;6269100;28;20025;-75
2022/10/19 03:58:47;;;;;;;0.55;0.40;;;20.10;61.30;;;;;;6267975;28;20032;-74
2022/10/19 04:01:48;;;;;;;0.60;0.40;;;20.10;61.30;;;;;;6267791;28;20028;-74
2022/10/19 04:04:48;;;;;;;0.30;0.30;;;20.10;61.20;;;;;;6267564;28;20013;-73
2022/10/19 04:07:50;;;;;;;0.63;0.40;;;20.10;61.30;;;;;;6267384;28;20485;-74
2022/10/19 04:10:51;;;;;;;0.85;0.50;;;20.10;61.30;;;;;;6268948;28;20083;-74
2022/10/19 04:13:53;;;;;;;0.38;0.30;;;20.10;61.30;;;;;;6267816;28;20025;-74
2022/10/19 04:16:54;;;;;;;0.60;0.50;;;20.10;61.30;;;;;;6268470;28;20028;-73
2022/10/19 04:19:55;;;;;;;0.60;0.40;;;20.10;61.30;;;;;;6267356;28;20024;-74
2022/10/19 04:22:58;;;;;;;0.55;0.40;;;20.10;61.20;;;;;;6268669;28;20021;-73
2022/10/19 04:26:04;;;;;;;0.75;0.50;;;20.10;61.20;;;;;;6268324;28;20071;-74
2022/10/19 04:29:05;;;;;;;0.60;0.50;;;20.10;61.30;;;;;;6266999;28;20021;-74
2022/10/19 04:32:06;;;;;;;0.77;0.47;;;20.10;61.30;;;;;;6267373;28;20055;-74
2022/10/19 04:35:07;;;;;;;0.30;0.30;;;20.10;61.30;;;;;;6268086;28;20470;-73
2022/10/19 04:38:09;;;;;;;0.40;0.40;;;20.10;61.30;;;;;;6267044;28;20021;-73
2022/10/19 04:41:13;;;;;;;0.90;0.45;;;20.10;61.30;;;;;;6266425;28;20116;-73
2022/10/19 04:44:14;;;;;;;0.30;0.30;;;20.10;61.30;;;;;;6268358;28;20547;-74
2022/10/19 04:47:14;;;;;;;0.30;0.30;;;20.10;61.30;;;;;;6266728;28;20056;-74
2022/10/19 04:50:15;;;;;;;0.93;0.50;;;20.10;61.30;;;;;;6266855;28;20056;-74
2022/10/19 04:53:18;;;;;;;0.50;0.40;;;20.20;61.40;;;;;;6268081;28;20413;-74
2022/10/19 04:56:21;;;;;;;1.10;0.30;;;20.10;61.30;;;;;;6266531;28;20021;-74
2022/10/19 05:03:20;;;;;;;0.65;0.52;;;20.20;61.40;;;;;;6268406;28;20051;-74
2022/10/19 05:06:20;;;;;;;0.57;0.43;;;20.20;61.40;;;;;;6266496;28;20124;-74
2022/10/19 05:09:21;;;;;;;0.73;0.40;;;20.10;61.30;;;;;;6267892;28;20612;-74
2022/10/19 05:12:22;;;;;;;0.40;0.40;;;20.10;61.30;;;;;;6267801;28;20048;-74
2022/10/19 05:15:22;;;;;;;0.63;0.45;;;20.10;61.30;;;;;;6267897;28;20017;-73
2022/10/19 05:18:24;;;;;;;0.90;0.50;;;20.10;61.30;;;;;;6267932;28;20075;-74
2022/10/19 05:21:27;;;;;;;0.40;0.40;;;20.20;61.40;;;;;;6267790;28;20017;-74
2022/10/19 05:24:31;;;;;;;0.40;0.40;;;20.20;61.40;;;;;;6266695;28;20028;-74
2022/10/19 05:27:32;;;;;;;0.40;0.40;;;20.20;61.40;;;;;;6266297;28;20504;-74
2022/10/19 05:30:33;;;;;;;0.30;0.30;;;20.20;61.40;;;;;;6266217;28;20486;-74
2022/10/19 05:33:34;;;;;;;0.50;0.40;;;20.10;61.30;;;;;;6267716;28;20079;-74
2022/10/19 05:36:38;;;;;;;0.50;0.40;;;20.10;61.30;;;;;;6266340;28;20029;-74
2022/10/19 05:39:39;;;;;;;0.35;0.30;;;20.10;61.30;;;;;;6267627;28;20461;-75
2022/10/19 05:42:39;;;;;;;0.47;0.35;;;20.10;61.30;;;;;;6266097;28;20025;-74
2022/10/19 05:45:40;;;;;;;0.77;0.55;;;20.10;61.30;;;;;;6267585;28;20519;-73
2022/10/19 05:48:41;;;;;;;0.50;0.30;;;20.10;61.30;;;;;;6267300;28;20037;-74
2022/10/19 05:51:42;;;;;;;0.55;0.35;;;20.10;61.30;;;;;;6268407;28;20033;-74
2022/10/19 05:54:43;;;;;;;0.95;0.50;;;20.20;61.40;;;;;;6272028;28;20036;-74
2022/10/19 05:57:43;;;;;;;0.35;0.35;;;20.10;61.30;;;;;;6272011;28;20048;-74
2022/10/19 06:00:56;;;;;;;0.30;0.30;;;20.10;61.30;;;;;;6273393;28;20029;-74
2022/10/19 06:03:58;;;;;;;0.20;0.20;;;20.10;61.30;;;;;;6272834;28;20025;-74
2022/10/19 06:07:00;;;;;;;0.88;0.40;;;20.10;61.30;;;;;;6273892;28;20120;-74
2022/10/19 06:10:00;;;;;;;0.70;0.40;;;20.20;61.40;;;;;;6273996;28;20032;-74
2022/10/19 06:13:01;;;;;;;0.85;0.50;;;20.20;61.40;;;;;;6273940;28;20021;-73
2022/10/19 06:16:02;;;;;;;0.47;0.40;;;20.20;61.40;;;;;;6272824;28;20027;-74
2022/10/19 06:19:04;;;;;;;0.75;0.30;;;20.20;61.40;;;;;;6269201;28;20128;-75
2022/10/19 06:22:06;;;;;;;0.65;0.45;;;20.10;61.30;;;;;;6273340;28;20167;-75
2022/10/19 06:25:07;;;;;;;0.30;0.30;;;20.20;61.40;;;;;;6271723;28;20029;-75
2022/10/19 06:28:08;;;;;;;0.28;0.22;;;20.20;61.50;;;;;;6272306;28;20383;-75
2022/10/19 06:31:11;;;;;;;0.47;0.38;;;20.10;61.30;;;;;;6263062;28;20026;-74
2022/10/19 06:34:12;;;;;;;0.50;0.30;;;20.10;61.40;;;;;;6248337;28;20026;-75
2022/10/19 06:37:13;;;;;;;0.82;0.50;;;20.10;61.30;;;;;;6246693;28;20036;-75
2022/10/19 06:40:14;;;;;;;0.50;0.30;;;20.10;61.30;;;;;;6252038;28;20394;-76
2022/10/19 06:43:15;;;;;;;0.47;0.40;;;20.10;61.40;;;;;;6271536;28;20032;-75
2022/10/19 06:46:19;;;;;;;0.80;0.30;;;20.10;61.30;;;;;;6271154;28;20045;-75
2022/10/19 06:49:19;;;;;;;0.93;0.40;;;20.20;61.40;;;;;;6272435;28;20053;-75
2022/10/19 06:52:20;;;;;;;0.70;0.50;;;20.20;61.40;;;;;;6271665;28;20386;-75
2022/10/19 06:55:21;;;;;;;0.73;0.32;;;20.20;61.30;;;;;;6278971;28;20053;-75
2022/10/19 06:58:21;;;;;;;1.10;0.30;;;20.20;61.30;;;;;;6272428;28;20385;-75
2022/10/19 07:01:23;;;;;;;1.10;0.40;;;20.10;61.30;;;;;;6270832;28;20021;-75
2022/10/19 07:04:24;;;;;;;0.40;0.20;;;20.20;61.40;;;;;;6270302;28;20548;-75
2022/10/19 07:07:24;;;;;;;0.52;0.40;;;20.20;61.40;;;;;;6272169;28;20024;-75
2022/10/19 07:10:25;;;;;;;0.40;0.40;;;20.20;61.30;;;;;;6272139;28;20103;-74
2022/10/19 07:13:27;;;;;;;0.73;0.50;;;20.20;61.20;;;;;;6270923;28;20437;-75
2022/10/19 07:16:29;;;;;;;0.68;0.50;;;20.10;61.20;;;;;;6289769;28;20019;-75
2022/10/19 07:19:31;;;;;;;0.40;0.38;;;20.20;61.20;;;;;;6296936;28;20111;-76
2022/10/19 07:22:31;;;;;;;0.55;0.47;;;20.20;61.30;;;;;;6279008;28;20025;-75
2022/10/19 07:25:32;;;;;;;0.60;0.47;;;20.20;61.20;;;;;;6271601;28;20437;-75
2022/10/19 07:28:34;;;;;;;0.85;0.40;;;20.20;61.20;;;;;;6261122;28;20107;-74
2022/10/19 07:31:35;;;;;;;0.32;0.32;;;20.20;61.20;;;;;;6269123;28;20312;-75
2022/10/19 07:34:36;;;;;;;0.43;0.30;;;20.20;61.20;;;;;;6271261;28;20474;-75
2022/10/19 07:37:37;;;;;;;0.10;0.10;;;20.20;61.20;;;;;;6268724;28;20025;-75
2022/10/19 07:40:39;;;;;;;0.52;0.30;;;20.20;61.20;;;;;;6271277;28;20032;-75
2022/10/19 07:43:42;;;;;;;0.30;0.30;;;20.20;61.20;;;;;;6271259;28;20052;-74
2022/10/19 07:46:44;;;;;;;0.43;0.40;;;20.20;61.20;;;;;;6269603;28;20025;-74
2022/10/19 07:49:44;;;;;;;0.50;0.30;;;20.20;61.20;;;;;;6268727;28;20073;-74
2022/10/19 07:52:46;;;;;;;1.25;0.47;;;20.20;61.20;;;;;;6267283;28;20035;-75
2022/10/19 07:55:46;;;;;;;0.98;0.45;;;20.20;61.10;;;;;;6269579;28;20024;-74
2022/10/19 07:58:49;;;;;;;0.70;0.40;;;20.20;61.10;;;;;;6271862;28;20390;-74
2022/10/19 08:01:52;;;;;;;0.55;0.45;;;20.20;61.20;;;;;;6267925;28;20033;-74
2022/10/19 08:04:53;;;;;;;0.47;0.35;;;20.20;61.30;;;;;;6247147;28;20026;-74
2022/10/19 08:07:55;;;;;;;0.63;0.40;;;20.30;61.00;;;;;;6258188;28;20112;-75
2022/10/19 08:10:56;;;;;;;2.55;0.50;;;20.30;60.70;;;;;;6270310;28;20103;-71
2022/10/19 08:14:01;;;;;;;0.43;0.20;;;20.30;60.70;;;;;;6260735;28;20017;-71
2022/10/19 08:17:02;;;;;;;1.27;0.50;;;20.30;60.80;;;;;;6247250;28;20017;-72
2022/10/19 08:20:05;;;;;;;0.75;0.40;;;20.30;61.00;;;;;;6261598;28;20022;-71
2022/10/19 08:23:05;;;;;;;1.00;0.40;;;20.30;60.90;;;;;;6252986;28;20108;-72
2022/10/19 08:26:06;;;;;;;2.28;0.60;;;20.20;61.30;;;;;;6288909;28;20021;-72
2022/10/19 08:29:15;;;;;;;5.38;0.80;;;20.20;59.80;;;;;;6279097;28;20055;-72
2022/10/19 08:32:17;;;;;;;2.35;0.80;;;20.20;59.30;;;;;;6269331;28;20071;-72
2022/10/19 08:35:18;;;;;;;3.55;0.88;;;20.20;59.10;;;;;;6260812;28;20064;-72
2022/10/19 08:38:19;;;;;;;3.53;1.08;;;20.20;58.80;;;;;;6246919;28;20025;-76
2022/10/19 08:41:22;;;;;;;6.07;1.15;;;20.20;58.40;;;;;;6247138;28;20029;-73
2022/10/19 08:44:54;;;;;;;3.72;1.10;;;20.20;58.00;;;;;;6271341;28;20021;-75
2022/10/19 08:48:15;;;;;;;4.95;1.10;;;20.20;57.90;;;;;;6271693;28;20025;-75
2022/10/19 08:51:15;;;;;;;2.67;1.08;;;20.20;58.20;;;;;;6271624;28;20039;-75
2022/10/19 08:54:17;;;;;;;3.55;0.85;;;20.20;58.80;;;;;;6271631;28;20382;-73
2022/10/19 08:57:54;;;;;;;2.40;0.80;;;20.20;58.50;;;;;;6270222;28;20171;-75
2022/10/19 09:01:28;;;;;;;3.85;1.02;;;20.20;59.30;;;;;;6271292;28;20108;-75
2022/10/19 09:05:00;;;;;;;3.70;1.08;;;20.20;59.50;;;;;;6269976;28;20473;-75
2022/10/19 09:08:01;;;;;;;3.38;1.10;;;20.20;59.60;;;;;;6269858;28;20037;-74
2022/10/19 09:11:03;;;;;;;4.47;1.00;;;20.20;59.20;;;;;;6269559;28;20025;-73
2022/10/19 09:14:19;;;;;;;3.30;1.15;;;20.20;59.50;;;;;;6260817;28;20023;-75
2022/10/19 09:17:19;;;;;;;2.00;0.85;;;20.20;59.40;;;;;;6260622;28;20025;-74
2022/10/19 09:20:28;;;;;;;1.92;0.73;;;20.20;59.80;;;;;;6261095;28;20052;-71
2022/10/19 09:23:59;;;;;;;1.17;0.70;;;20.20;59.80;;;;;;6260181;28;20573;-70
2022/10/19 09:27:01;;;;;;;2.25;0.80;;;20.20;60.00;;;;;;6243807;28;20497;-75
2022/10/19 09:30:05;;;;;;;3.22;1.02;;;20.20;60.20;;;;;;6267849;28;20029;-72
2022/10/19 09:33:18;;;;;;;4.13;0.80;;;20.20;59.40;;;;;;6259813;28;20514;-73
2022/10/19 09:36:18;;;;;;;2.13;0.80;;;20.20;58.80;;;;;;6253888;28;20029;-73
2022/10/19 09:39:19;;;;;;;2.13;0.88;;;20.20;59.30;;;;;;6265879;28;20553;-74
2022/10/19 09:42:32;;;;;;;6.43;1.25;;;20.20;59.50;;;;;;6256575;28;20021;-73
2022/10/19 09:49:45;;;;;;;1.60;0.70;;;20.20;59.60;;;;;;6261669;28;20097;-74
2022/10/19 09:52:52;;;;;;;2.47;0.82;;;20.20;59.60;;;;;;6257716;28;20033;-74
2022/10/19 09:56:05;;;;;;;2.58;0.77;;;20.30;59.80;;;;;;6272865;28;20021;-74
2022/10/19 09:59:23;;;;;;;3.58;0.80;;;20.30;59.90;;;;;;6271760;28;20033;-73
2022/10/19 10:02:31;;;;;;;2.05;0.70;;;20.30;59.90;;;;;;6248849;28;20386;-73
2022/10/19 10:05:40;;;;;;;1.00;0.60;;;20.30;59.90;;;;;;6249330;28;20030;-73
2022/10/19 10:12:46;;;;;;;1.65;0.70;;;20.20;59.90;;;;;;6249622;28;20120;-73
2022/10/19 10:16:02;;;;;;;2.97;1.00;;;20.30;60.10;;;;;;6274285;28;20025;-73
2022/10/19 10:19:12;;;;;;;4.65;0.85;;;20.20;60.10;;;;;;6271303;28;20067;-73
2022/10/19 10:22:35;;;;;;;3.58;1.02;;;20.20;60.00;;;;;;6272082;28;20040;-73
2022/10/19 10:25:37;;;;;;;9.63;0.95;;;20.20;59.40;;;;;;6270567;28;20033;-73
2022/10/19 10:29:06;;;;;;;2.50;0.90;;;20.20;60.00;;;;;;6266330;28;20032;-72
2022/10/19 10:32:20;;;;;;;2.70;0.77;;;20.20;60.10;;;;;;6272415;28;20103;-76
2022/10/19 10:35:34;;;;;;;5.03;0.63;;;20.20;60.10;;;;;;6268206;28;20052;-72
2022/10/19 10:38:39;;;;;;;1.70;0.60;;;20.30;60.20;;;;;;6270883;28;20048;-76
2022/10/19 10:41:42;;;;;;;;;;;20.30;60.00;;;;;;6272586;28;20017;-76
2022/10/19 10:44:52;;;;;;;0.55;0.50;;;20.30;59.60;;;;;;6272010;28;20374;-75
2022/10/19 10:47:53;;;;;;;1.02;0.70;;;20.30;59.50;;;;;;6271354;28;20066;-76
2022/10/19 10:50:55;;;;;;;1.85;0.63;;;20.40;59.50;;;;;;6271054;28;20460;-77
2022/10/19 10:54:18;;;;;;;1.02;0.50;;;20.40;59.40;;;;;;6253901;28;20040;-76
2022/10/19 10:57:20;;;;;;;1.40;0.50;;;20.40;59.30;;;;;;6253375;28;20029;-76
2022/10/19 11:00:23;;;;;;;1.55;0.57;;;20.40;59.40;;;;;;6247780;28;20025;-76
2022/10/19 11:03:32;;;;;;;3.40;0.60;;;20.40;59.20;;;;;;6278377;28;20123;-76
2022/10/19 11:06:39;;;;;;;4.22;0.80;;;20.40;59.30;;;;;;6266895;28;20100;-76
2022/10/19 11:09:57;;;;;;;4.38;0.50;;;20.40;59.20;;;;;;6250184;28;20033;-72
2022/10/19 11:13:28;;;;;;;5.47;0.70;;;20.40;59.20;;;;;;6279864;28;20032;-74
2022/10/19 11:16:41;;;;;;;3.00;0.60;;;20.40;59.50;;;;;;6243657;28;20116;-73
2022/10/19 11:19:44;;;;;;;1.75;0.65;;;20.40;59.50;;;;;;6263629;28;20034;-73
2022/10/19 11:23:30;;;;;;;3.45;0.65;;;20.40;59.50;;;;;;6233488;28;20041;-73
2022/10/19 11:27:04;;;;;;;1.65;0.50;;;20.40;59.50;;;;;;6264405;28;20478;-73
2022/10/19 11:30:08;;;;;;;2.50;0.57;;;20.40;59.40;;;;;;6271211;28;20029;-73
2022/10/19 11:33:23;;;;;;;1.87;0.63;;;20.40;59.40;;;;;;6260351;28;20029;-73
2022/10/19 11:36:41;;;;;;;1.48;0.60;;;20.40;59.50;;;;;;6249177;28;20502;-73
2022/10/19 11:40:09;;;;;;;1.08;0.60;;;20.40;59.50;;;;;;6270868;28;20448;-73
2022/10/19 11:43:41;;;;;;;2.03;0.73;;;20.30;59.40;;;;;;6263053;28;20033;-73
2022/10/19 11:46:51;;;;;;;1.33;0.40;;;20.30;59.70;;;;;;6248178;28;20034;-72
2022/10/19 11:50:18;;;;;;;2.15;0.65;;;20.30;59.50;;;;;;6270151;28;20091;-72
2022/10/19 11:53:30;;;;;;;2.53;0.90;;;20.30;59.50;;;;;;6271312;28;20021;-73
2022/10/19 11:56:37;;;;;;;0.60;0.40;;;20.30;59.60;;;;;;6261755;28;20021;-73
2022/10/19 11:59:53;;;;;;;2.45;0.60;;;20.30;59.70;;;;;;6261717;28;20647;-73
2022/10/19 12:02:59;;;;;;;1.35;0.60;;;20.30;59.70;;;;;;6267546;28;20040;-74
2022/10/19 12:06:38;;;;;;;0.73;0.38;;;20.30;59.90;;;;;;6270596;28;20040;-75
2022/10/19 12:10:12;;;;;;;0.80;0.30;;;20.40;59.90;;;;;;6269736;28;20024;-73
2022/10/19 12:13:19;;;;;;;0.50;0.40;;;20.30;59.80;;;;;;6265490;28;20025;-73
2022/10/19 12:16:26;;;;;;;1.67;0.60;;;20.40;60.00;;;;;;6263579;28;20048;-74
2022/10/19 12:19:37;;;;;;;1.25;0.60;;;20.30;59.90;;;;;;6271189;28;20037;-73
2022/10/19 12:22:39;;;;;;;4.00;0.50;;;20.30;59.80;;;;;;6269439;28;20107;-73
2022/10/19 12:25:46;;;;;;;0.80;0.63;;;20.30;59.70;;;;;;6269070;28;20521;-73
2022/10/19 12:28:53;;;;;;;1.60;0.50;;;20.30;59.60;;;;;;6259621;28;20079;-73
2022/10/19 12:31:56;;;;;;;2.20;0.43;;;20.30;59.60;;;;;;6245189;28;20700;-73
2022/10/19 12:35:18;;;;;;;1.35;0.47;;;20.30;59.70;;;;;;6264050;28;20021;-72
2022/10/19 12:38:38;;;;;;;1.92;0.50;;;20.30;59.70;;;;;;6269762;28;20067;-73
2022/10/19 12:42:17;;;;;;;0.77;0.30;;;20.30;60.00;;;;;;6268668;28;20021;-73
2022/10/19 12:45:38;;;;;;;1.40;0.40;;;20.30;60.00;;;;;;6269022;28;20025;-73
2022/10/19 12:48:38;;;;;;;0.65;0.40;;;20.30;59.80;;;;;;6269891;28;20047;-74
2022/10/19 12:51:46;;;;;;;1.25;0.65;;;20.30;60.00;;;;;;6268959;28;20037;-73
2022/10/19 12:54:47;;;;;;;1.65;0.50;;;20.30;59.90;;;;;;6256151;28;20025;-73
2022/10/19 12:57:58;;;;;;;0.85;0.40;;;20.30;60.00;;;;;;6246095;28;20022;-73
2022/10/19 13:01:01;;;;;;;1.85;0.38;;;20.30;60.00;;;;;;6267286;28;20029;-73
2022/10/19 13:04:08;;;;;;;0.68;0.40;;;20.30;60.00;;;;;;6268816;28;20124;-73
2022/10/19 13:07:16;;;;;;;2.05;0.65;;;20.30;59.80;;;;;;6268971;28;20474;-73
2022/10/19 13:10:21;;;;;;;0.88;0.43;;;20.30;59.80;;;;;;6253847;28;20075;-73
2022/10/19 13:14:01;;;;;;;0.57;0.38;;;20.30;60.00;;;;;;6244068;28;20021;-73
2022/10/19 13:17:02;;;;;;;0.80;0.47;;;20.30;59.90;;;;;;6245315;28;20103;-73
2022/10/19 13:20:12;;;;;;;7.20;0.50;;;20.30;60.00;;;;;;6244250;28;20037;-73
2022/10/19 13:23:13;;;;;;;1.15;0.52;;;20.30;59.80;;;;;;6249347;28;20036;-73
2022/10/19 13:26:29;;;;;;;0.63;0.43;;;20.30;59.80;;;;;;6256098;28;20062;-73
2022/10/19 13:29:36;;;;;;;1.23;0.40;;;20.30;60.00;;;;;;6265131;28;20430;-73
2022/10/19 13:32:43;;;;;;;1.15;0.60;;;20.30;60.00;;;;;;6244095;28;20026;-73
2022/10/19 13:35:45;;;;;;;1.10;0.40;;;20.30;60.00;;;;;;6244500;28;20022;-72
2022/10/19 13:38:59;;;;;;;1.20;0.50;;;20.30;59.90;;;;;;6244316;28;20167;-73
2022/10/19 13:42:00;;;;;;;0.70;0.40;;;20.30;60.00;;;;;;6260509;28;20099;-73
2022/10/19 13:45:01;;;;;;;0.80;0.40;;;20.30;59.80;;;;;;6268387;28;20029;-73
2022/10/19 13:48:31;;;;;;;0.98;0.52;;;20.30;60.00;;;;;;6260852;28;20025;-73
2022/10/19 13:51:57;;;;;;;0.45;0.40;;;20.30;60.00;;;;;;6261136;28;20494;-73
2022/10/19 13:55:32;;;;;;;0.77;0.30;;;20.30;60.00;;;;;;6267594;28;20028;-72
2022/10/19 13:59:05;;;;;;;0.93;0.50;;;20.30;60.00;;;;;;6260476;28;20030;-73
2022/10/19 14:02:30;;;;;;;0.30;0.30;;;20.30;60.00;;;;;;6264154;28;20074;-73
2022/10/19 14:06:01;;;;;;;0.63;0.40;;;20.30;59.80;;;;;;6269388;28;20028;-73
2022/10/19 14:09:34;;;;;;;1.33;0.40;;;20.30;59.90;;;;;;6263926;28;20030;-73
2022/10/19 14:12:41;;;;;;;1.17;0.32;;;20.30;60.80;;;;;;6250698;28;20498;-73
2022/10/19 14:15:51;;;;;;;0.57;0.40;;;20.30;59.90;;;;;;6245345;28;20030;-73
2022/10/19 14:18:54;;;;;;;1.02;0.40;;;20.30;59.80;;;;;;6249725;28;20021;-73
2022/10/19 14:22:24;;;;;;;1.95;0.73;;;20.30;59.90;;;;;;6268024;28;20033;-73
2022/10/19 14:25:26;;;;;;;0.80;0.38;;;20.30;60.00;;;;;;6265610;28;20103;-74
2022/10/19 14:28:28;;;;;;;0.60;0.35;;;20.30;59.80;;;;;;6271469;28;20025;-75
2022/10/19 14:31:35;;;;;;;1.60;0.35;;;20.30;60.00;;;;;;6271543;28;20048;-76
2022/10/19 14:34:44;;;;;;;1.20;0.40;;;20.30;60.00;;;;;;6271315;28;20641;-73
2022/10/19 14:37:45;;;;;;;0.60;0.50;;;20.30;59.90;;;;;;6250971;28;20032;-73
2022/10/19 14:40:46;;;;;;;1.35;0.40;;;20.30;59.30;;;;;;6246754;28;20486;-73
2022/10/19 14:43:48;;;;;;;1.92;0.50;;;20.30;59.00;;;;;;6248857;28;20026;-74
2022/10/19 14:46:48;;;;;;;4.72;0.60;;;20.30;57.70;;;;;;6258829;28;20166;-73
2022/10/19 14:49:50;;;;;;;2.28;0.70;;;20.30;57.70;;;;;;6272350;28;20041;-74
2022/10/19 14:52:57;;;;;;;3.80;0.40;;;20.40;58.00;;;;;;6262976;28;20022;-73
2022/10/19 14:56:05;;;;;;;1.40;0.63;;;20.30;58.50;;;;;;6245745;28;20033;-73
2022/10/19 14:59:29;;;;;;;2.00;0.50;;;20.30;58.60;;;;;;6262107;28;20021;-73
2022/10/19 15:02:36;;;;;;;0.88;0.40;;;20.30;59.10;;;;;;6271960;28;20028;-73
2022/10/19 15:05:41;;;;;;;1.10;0.40;;;20.30;59.30;;;;;;6270079;28;20048;-73
2022/10/19 15:09:01;;;;;;;3.05;0.47;;;20.30;59.20;;;;;;6260121;28;20116;-74
2022/10/19 15:12:14;;;;;;;5.95;0.75;;;20.30;59.20;;;;;;6272222;28;20031;-73
2022/10/19 15:15:27;;;;;;;0.47;0.25;;;20.30;59.00;;;;;;6249888;28;20025;-73
2022/10/19 15:18:36;;;;;;;2.33;0.50;;;20.30;59.20;;;;;;6246012;28;20076;-71
2022/10/19 15:21:37;;;;;;;1.50;0.47;;;20.30;59.30;;;;;;6252641;28;20493;-73
2022/10/19 15:24:39;;;;;;;1.70;0.63;;;20.30;59.30;;;;;;6261139;28;20029;-74
2022/10/19 15:27:44;;;;;;;1.40;0.50;;;20.30;59.30;;;;;;6248135;28;20029;-74
2022/10/19 15:30:56;;;;;;;;;;;20.30;58.60;;;;;;6271649;28;20025;-74
2022/10/19 15:33:59;;;;;;;2.88;0.47;;;20.30;58.70;;;;;;6270292;28;20011;-73
2022/10/19 15:37:00;;;;;;;3.35;0.60;;;20.30;59.00;;;;;;6269230;28;20112;-74
2022/10/19 15:40:12;;;;;;;3.10;0.50;;;20.30;59.70;;;;;;6271307;28;20049;-74
2022/10/19 15:43:34;;;;;;;6.82;1.48;;;20.40;59.40;;;;;;6271160;28;20025;-73
2022/10/19 15:47:19;;;;;;;2.85;0.70;;;20.40;59.10;;;;;;6269964;28;20074;-73
2022/10/19 15:50:38;;;;;;;1.02;0.47;;;20.30;59.30;;;;;;6270321;28;20076;-72
2022/10/19 15:53:39;;;;;;;0.60;0.40;;;20.30;59.50;;;;;;6270722;28;20021;-73
2022/10/19 15:56:43;;;;;;;1.15;0.50;;;20.30;59.50;;;;;;6269376;28;20029;-75
2022/10/19 15:59:43;;;;;;;0.82;0.40;;;20.30;59.50;;;;;;6260808;28;20120;-73
2022/10/19 16:02:44;;;;;;;1.25;0.38;;;20.30;59.50;;;;;;6264332;28;20021;-72
2022/10/19 16:05:46;;;;;;;1.67;0.45;;;20.30;59.60;;;;;;6269753;28;20048;-73
2022/10/19 16:08:49;;;;;;;0.55;0.40;;;20.30;59.60;;;;;;6255633;28;20076;-73
2022/10/19 16:11:55;;;;;;;2.50;0.40;;;20.30;59.70;;;;;;6270008;28;20052;-74
2022/10/19 16:14:56;;;;;;;0.93;0.30;;;20.30;59.70;;;;;;6244655;28;20398;-73
2022/10/19 16:17:59;;;;;;;1.70;0.50;;;20.30;59.70;;;;;;6264024;28;20025;-73
2022/10/19 16:21:01;;;;;;;7.32;0.73;;;20.30;59.80;;;;;;6268102;28;20032;-74
2022/10/19 16:24:01;;;;;;;5.13;0.70;;;20.30;59.80;;;;;;6254340;28;20053;-74
2022/10/19 16:27:02;;;;;;;2.00;0.50;;;20.30;59.80;;;;;;6242780;28;20035;-73